sensor_id;sensor_type;location;lat;lon;timestamp;pressure;altitude;pressure_sealevel;temperature;humidity
68376;BME280;55318;52.068;5.188;2023-06-14T00:01:18;101564.0;;;21.39;43.98
68376;BME280;55318;52.068;5.188;2023-06-14T00:04:31;101566.0;;;21.49;44.16
68376;BME280;55318;52.068;5.188;2023-06-14T00:06:07;101566.0;;;21.44;43.82
68376;BME280;55318;52.068;5.188;2023-06-14T00:07:43;101570.0;;;21.47;44.12
68376;BME280;55318;52.068;5.188;2023-06-14T00:10:55;101566.0;;;21.41;43.9
68376;BME280;55318;52.068;5.188;2023-06-14T00:12:31;101564.0;;;21.43;44.64
68376;BME280;55318;52.068;5.188;2023-06-14T00:14:07;101568.0;;;21.33;44.37
68376;BME280;55318;52.068;5.188;2023-06-14T00:15:44;101567.0;;;21.34;43.97
68376;BME280;55318;52.068;5.188;2023-06-14T00:18:57;101569.0;;;21.37;43.58
68376;BME280;55318;52.068;5.188;2023-06-14T00:20:33;101572.0;;;21.26;43.79
68376;BME280;55318;52.068;5.188;2023-06-14T00:22:09;101571.0;;;21.19;44.08
68376;BME280;55318;52.068;5.188;2023-06-14T00:25:22;101572.0;;;21.22;43.95
68376;BME280;55318;52.068;5.188;2023-06-14T00:26:59;101570.0;;;21.08;44.47
68376;BME280;55318;52.068;5.188;2023-06-14T00:28:35;101570.0;;;21.25;43.8
68376;BME280;55318;52.068;5.188;2023-06-14T00:31:48;101569.0;;;21.29;43.82
68376;BME280;55318;52.068;5.188;2023-06-14T00:33:24;101571.0;;;21.14;44.33
68376;BME280;55318;52.068;5.188;2023-06-14T00:35:00;101569.0;;;21.01;44.41
68376;BME280;55318;52.068;5.188;2023-06-14T00:36:37;101568.0;;;21.14;44.13
68376;BME280;55318;52.068;5.188;2023-06-14T00:39:49;101568.0;;;21.11;44.57
68376;BME280;55318;52.068;5.188;2023-06-14T00:41:25;101568.0;;;21.15;44.3
68376;BME280;55318;52.068;5.188;2023-06-14T00:43:01;101567.0;;;21.09;44.77
68376;BME280;55318;52.068;5.188;2023-06-14T00:46:13;101569.0;;;20.95;45.01
68376;BME280;55318;52.068;5.188;2023-06-14T00:47:50;101569.0;;;20.99;44.65
68376;BME280;55318;52.068;5.188;2023-06-14T00:49:29;101572.0;;;20.98;45.06
68376;BME280;55318;52.068;5.188;2023-06-14T00:52:42;101573.0;;;20.87;45.19
68376;BME280;55318;52.068;5.188;2023-06-14T00:54:18;101572.0;;;20.84;45.37
68376;BME280;55318;52.068;5.188;2023-06-14T00:55:54;101566.0;;;20.74;45.32
68376;BME280;55318;52.068;5.188;2023-06-14T00:57:31;101572.0;;;20.68;46.21
68376;BME280;55318;52.068;5.188;2023-06-14T01:00:43;101567.0;;;20.78;45.23
68376;BME280;55318;52.068;5.188;2023-06-14T01:02:19;101569.0;;;20.72;45.46
68376;BME280;55318;52.068;5.188;2023-06-14T01:03:55;101565.0;;;20.59;45.67
68376;BME280;55318;52.068;5.188;2023-06-14T01:07:12;101571.0;;;20.58;47.41
68376;BME280;55318;52.068;5.188;2023-06-14T01:09:03;101575.0;;;20.54;46.44
68376;BME280;55318;52.068;5.188;2023-06-14T01:10:47;101578.0;;;20.45;46.27
68376;BME280;55318;52.068;5.188;2023-06-14T01:12:43;101576.0;;;20.39;46.88
68376;BME280;55318;52.068;5.188;2023-06-14T01:14:25;101572.0;;;20.38;47.13
68376;BME280;55318;52.068;5.188;2023-06-14T01:17:44;101574.0;;;20.34;47.63
68376;BME280;55318;52.068;5.188;2023-06-14T01:19:22;101576.0;;;20.41;46.77
68376;BME280;55318;52.068;5.188;2023-06-14T01:20:59;101571.0;;;20.39;46.5
68376;BME280;55318;52.068;5.188;2023-06-14T01:24:11;101567.0;;;20.45;46.88
68376;BME280;55318;52.068;5.188;2023-06-14T01:25:48;101569.0;;;20.37;46.79
68376;BME280;55318;52.068;5.188;2023-06-14T01:27:25;101570.0;;;20.45;46.67
68376;BME280;55318;52.068;5.188;2023-06-14T01:29:01;101567.0;;;20.14;47.95
68376;BME280;55318;52.068;5.188;2023-06-14T01:32:16;101565.0;;;20.16;47.21
68376;BME280;55318;52.068;5.188;2023-06-14T01:33:53;101572.0;;;20.25;46.71
68376;BME280;55318;52.068;5.188;2023-06-14T01:35:29;101573.0;;;20.16;48.31
68376;BME280;55318;52.068;5.188;2023-06-14T01:38:44;101575.0;;;20.06;47.19
68376;BME280;55318;52.068;5.188;2023-06-14T01:40:21;101577.0;;;20.04;47.2
68376;BME280;55318;52.068;5.188;2023-06-14T01:41:58;101576.0;;;20.02;47.3
68376;BME280;55318;52.068;5.188;2023-06-14T01:43:35;101574.0;;;20.06;47.04
68376;BME280;55318;52.068;5.188;2023-06-14T01:46:48;101576.0;;;19.95;48.29
68376;BME280;55318;52.068;5.188;2023-06-14T01:48:25;101576.0;;;19.91;48.41
68376;BME280;55318;52.068;5.188;2023-06-14T01:50:02;101574.0;;;19.93;47.79
68376;BME280;55318;52.068;5.188;2023-06-14T01:53:15;101571.0;;;19.75;49.43
68376;BME280;55318;52.068;5.188;2023-06-14T01:54:52;101573.0;;;19.77;48.35
68376;BME280;55318;52.068;5.188;2023-06-14T01:56:28;101571.0;;;19.63;48.7
68376;BME280;55318;52.068;5.188;2023-06-14T01:59:40;101574.0;;;19.61;48.45
68376;BME280;55318;52.068;5.188;2023-06-14T02:01:17;101576.0;;;19.59;49.68
68376;BME280;55318;52.068;5.188;2023-06-14T02:02:53;101575.0;;;19.53;48.39
68376;BME280;55318;52.068;5.188;2023-06-14T02:04:29;101573.0;;;19.53;49.34
68376;BME280;55318;52.068;5.188;2023-06-14T02:07:41;101570.0;;;19.59;48.94
68376;BME280;55318;52.068;5.188;2023-06-14T02:09:17;101572.0;;;19.61;48.46
68376;BME280;55318;52.068;5.188;2023-06-14T02:10:53;101566.0;;;19.53;48.68
68376;BME280;55318;52.068;5.188;2023-06-14T02:14:06;101568.0;;;19.48;49.6
68376;BME280;55318;52.068;5.188;2023-06-14T02:15:42;101566.0;;;19.66;48.77
68376;BME280;55318;52.068;5.188;2023-06-14T02:17:18;101566.0;;;19.48;49.46
68376;BME280;55318;52.068;5.188;2023-06-14T02:20:30;101571.0;;;19.41;48.73
68376;BME280;55318;52.068;5.188;2023-06-14T02:22:06;101567.0;;;19.45;49.75
68376;BME280;55318;52.068;5.188;2023-06-14T02:23:42;101566.0;;;19.52;48.75
68376;BME280;55318;52.068;5.188;2023-06-14T02:26:55;101572.0;;;19.43;49.01
68376;BME280;55318;52.068;5.188;2023-06-14T02:28:31;101566.0;;;19.36;49.34
68376;BME280;55318;52.068;5.188;2023-06-14T02:30:08;101572.0;;;19.28;49.29
68376;BME280;55318;52.068;5.188;2023-06-14T02:31:44;101572.0;;;19.41;48.85
68376;BME280;55318;52.068;5.188;2023-06-14T02:34:57;101573.0;;;19.27;49.29
68376;BME280;55318;52.068;5.188;2023-06-14T02:36:34;101573.0;;;19.25;50.41
68376;BME280;55318;52.068;5.188;2023-06-14T02:38:10;101576.0;;;19.16;50.63
68376;BME280;55318;52.068;5.188;2023-06-14T02:41:22;101574.0;;;19.09;50.5
68376;BME280;55318;52.068;5.188;2023-06-14T02:42:58;101574.0;;;19.09;49.75
68376;BME280;55318;52.068;5.188;2023-06-14T02:44:34;101574.0;;;19.05;49.87
68376;BME280;55318;52.068;5.188;2023-06-14T02:47:47;101577.0;;;19.07;52.24
68376;BME280;55318;52.068;5.188;2023-06-14T02:49:23;101576.0;;;19.06;50.58
68376;BME280;55318;52.068;5.188;2023-06-14T02:50:59;101582.0;;;19.11;50.34
68376;BME280;55318;52.068;5.188;2023-06-14T02:52:35;101583.0;;;18.98;50.35
68376;BME280;55318;52.068;5.188;2023-06-14T02:55:47;101580.0;;;19.03;50.21
68376;BME280;55318;52.068;5.188;2023-06-14T02:57:24;101580.0;;;18.97;50.54
68376;BME280;55318;52.068;5.188;2023-06-14T02:59:00;101581.0;;;18.91;50.73
68376;BME280;55318;52.068;5.188;2023-06-14T03:02:12;101584.0;;;19.0;51.33
68376;BME280;55318;52.068;5.188;2023-06-14T03:03:48;101583.0;;;18.84;50.98
68376;BME280;55318;52.068;5.188;2023-06-14T03:05:24;101586.0;;;18.79;52.49
68376;BME280;55318;52.068;5.188;2023-06-14T03:08:37;101587.0;;;18.87;51.41
68376;BME280;55318;52.068;5.188;2023-06-14T03:10:13;101589.0;;;18.86;51.33
68376;BME280;55318;52.068;5.188;2023-06-14T03:11:49;101588.0;;;18.68;52.55
68376;BME280;55318;52.068;5.188;2023-06-14T03:15:01;101593.0;;;18.75;52.66
68376;BME280;55318;52.068;5.188;2023-06-14T03:16:39;101594.0;;;18.7;52.67
68376;BME280;55318;52.068;5.188;2023-06-14T03:18:15;101594.0;;;18.81;51.27
68376;BME280;55318;52.068;5.188;2023-06-14T03:19:51;101596.0;;;18.61;51.93
68376;BME280;55318;52.068;5.188;2023-06-14T03:23:03;101598.0;;;18.66;51.1
68376;BME280;55318;52.068;5.188;2023-06-14T03:24:39;101596.0;;;18.54;53.5
68376;BME280;55318;52.068;5.188;2023-06-14T03:26:15;101599.0;;;18.59;51.87
68376;BME280;55318;52.068;5.188;2023-06-14T03:29:27;101599.0;;;18.45;52.44
68376;BME280;55318;52.068;5.188;2023-06-14T03:31:04;101602.0;;;18.56;51.98
68376;BME280;55318;52.068;5.188;2023-06-14T03:32:40;101605.0;;;18.61;51.99
68376;BME280;55318;52.068;5.188;2023-06-14T03:35:52;101605.0;;;18.59;52.27
68376;BME280;55318;52.068;5.188;2023-06-14T03:37:28;101609.0;;;18.5;53.13
68376;BME280;55318;52.068;5.188;2023-06-14T03:39:04;101612.0;;;18.61;51.64
68376;BME280;55318;52.068;5.188;2023-06-14T03:40:40;101612.0;;;18.56;52.15
68376;BME280;55318;52.068;5.188;2023-06-14T03:43:53;101617.0;;;18.45;52.88
68376;BME280;55318;52.068;5.188;2023-06-14T03:45:29;101616.0;;;18.45;53.26
68376;BME280;55318;52.068;5.188;2023-06-14T03:47:05;101620.0;;;18.52;52.03
68376;BME280;55318;52.068;5.188;2023-06-14T03:50:17;101621.0;;;18.41;52.08
68376;BME280;55318;52.068;5.188;2023-06-14T03:51:53;101620.0;;;18.46;52.03
68376;BME280;55318;52.068;5.188;2023-06-14T03:53:30;101623.0;;;18.28;53.47
68376;BME280;55318;52.068;5.188;2023-06-14T03:56:42;101621.0;;;18.28;54.14
68376;BME280;55318;52.068;5.188;2023-06-14T03:58:18;101624.0;;;18.41;52.62
68376;BME280;55318;52.068;5.188;2023-06-14T03:59:54;101623.0;;;18.43;54.25
68376;BME280;55318;52.068;5.188;2023-06-14T04:03:06;101627.0;;;18.43;52.38
68376;BME280;55318;52.068;5.188;2023-06-14T04:04:43;101625.0;;;18.41;53.51
68376;BME280;55318;52.068;5.188;2023-06-14T04:06:19;101627.0;;;18.34;54.95
68376;BME280;55318;52.068;5.188;2023-06-14T04:07:55;101631.0;;;18.31;55.04
68376;BME280;55318;52.068;5.188;2023-06-14T04:11:07;101630.0;;;18.46;53.1
68376;BME280;55318;52.068;5.188;2023-06-14T04:12:43;101632.0;;;18.5;53.88
68376;BME280;55318;52.068;5.188;2023-06-14T04:14:19;101633.0;;;18.43;53.69
68376;BME280;55318;52.068;5.188;2023-06-14T04:17:32;101638.0;;;18.5;53.21
68376;BME280;55318;52.068;5.188;2023-06-14T04:19:08;101639.0;;;18.32;53.86
68376;BME280;55318;52.068;5.188;2023-06-14T04:20:44;101641.0;;;18.36;54.51
68376;BME280;55318;52.068;5.188;2023-06-14T04:23:56;101647.0;;;18.25;54.36
68376;BME280;55318;52.068;5.188;2023-06-14T04:25:32;101644.0;;;18.27;53.27
68376;BME280;55318;52.068;5.188;2023-06-14T04:27:08;101648.0;;;18.38;53.72
68376;BME280;55318;52.068;5.188;2023-06-14T04:30:21;101640.0;;;18.46;53.62
68376;BME280;55318;52.068;5.188;2023-06-14T04:31:57;101641.0;;;18.53;53.41
68376;BME280;55318;52.068;5.188;2023-06-14T04:33:34;101642.0;;;18.59;53.92
68376;BME280;55318;52.068;5.188;2023-06-14T04:35:09;101646.0;;;18.63;52.77
68376;BME280;55318;52.068;5.188;2023-06-14T04:38:22;101645.0;;;18.63;53.15
68376;BME280;55318;52.068;5.188;2023-06-14T04:39:58;101650.0;;;18.59;52.87
68376;BME280;55318;52.068;5.188;2023-06-14T04:41:34;101648.0;;;18.57;54.0
68376;BME280;55318;52.068;5.188;2023-06-14T04:44:46;101655.0;;;18.45;54.1
68376;BME280;55318;52.068;5.188;2023-06-14T04:46:22;101655.0;;;18.5;55.47
68376;BME280;55318;52.068;5.188;2023-06-14T04:47:59;101660.0;;;18.39;53.56
68376;BME280;55318;52.068;5.188;2023-06-14T04:51:11;101656.0;;;18.59;53.58
68376;BME280;55318;52.068;5.188;2023-06-14T04:52:47;101656.0;;;18.61;52.49
68376;BME280;55318;52.068;5.188;2023-06-14T04:54:23;101655.0;;;18.7;53.12
68376;BME280;55318;52.068;5.188;2023-06-14T04:55:59;101656.0;;;18.77;53.49
68376;BME280;55318;52.068;5.188;2023-06-14T04:59:11;101660.0;;;18.79;52.46
68376;BME280;55318;52.068;5.188;2023-06-14T05:00:47;101663.0;;;18.77;53.32
68376;BME280;55318;52.068;5.188;2023-06-14T05:02:24;101661.0;;;18.82;52.14
68376;BME280;55318;52.068;5.188;2023-06-14T05:05:37;101662.0;;;18.82;52.3
68376;BME280;55318;52.068;5.188;2023-06-14T05:07:13;101660.0;;;18.84;53.0
68376;BME280;55318;52.068;5.188;2023-06-14T05:08:49;101665.0;;;18.91;52.9
68376;BME280;55318;52.068;5.188;2023-06-14T05:12:02;101664.0;;;18.98;52.94
68376;BME280;55318;52.068;5.188;2023-06-14T05:13:37;101670.0;;;19.0;52.47
68376;BME280;55318;52.068;5.188;2023-06-14T05:15:14;101668.0;;;19.03;52.2
68376;BME280;55318;52.068;5.188;2023-06-14T05:18:26;101669.0;;;19.09;51.7
68376;BME280;55318;52.068;5.188;2023-06-14T05:20:02;101668.0;;;19.06;52.13
68376;BME280;55318;52.068;5.188;2023-06-14T05:21:38;101673.0;;;19.02;52.66
68376;BME280;55318;52.068;5.188;2023-06-14T05:23:14;101675.0;;;19.02;52.29
68376;BME280;55318;52.068;5.188;2023-06-14T05:26:27;101672.0;;;19.0;51.67
68376;BME280;55318;52.068;5.188;2023-06-14T05:28:03;101677.0;;;19.0;52.05
68376;BME280;55318;52.068;5.188;2023-06-14T05:29:39;101675.0;;;19.07;52.37
68376;BME280;55318;52.068;5.188;2023-06-14T05:32:51;101681.0;;;19.05;51.53
68376;BME280;55318;52.068;5.188;2023-06-14T05:34:27;101682.0;;;19.07;51.84
68376;BME280;55318;52.068;5.188;2023-06-14T05:36:04;101674.0;;;19.22;51.74
68376;BME280;55318;52.068;5.188;2023-06-14T05:39:16;101677.0;;;19.38;51.69
68376;BME280;55318;52.068;5.188;2023-06-14T05:40:52;101674.0;;;19.39;51.06
68376;BME280;55318;52.068;5.188;2023-06-14T05:42:28;101677.0;;;19.46;51.02
68376;BME280;55318;52.068;5.188;2023-06-14T05:45:40;101683.0;;;19.56;51.16
68376;BME280;55318;52.068;5.188;2023-06-14T05:47:16;101681.0;;;19.7;50.92
68376;BME280;55318;52.068;5.188;2023-06-14T05:48:53;101687.0;;;19.71;51.52
68376;BME280;55318;52.068;5.188;2023-06-14T05:50:31;101685.0;;;19.78;49.8
68376;BME280;55318;52.068;5.188;2023-06-14T05:53:44;101689.0;;;19.77;49.81
68376;BME280;55318;52.068;5.188;2023-06-14T05:55:20;101692.0;;;19.88;50.11
68376;BME280;55318;52.068;5.188;2023-06-14T05:56:56;101694.0;;;20.0;50.34
68376;BME280;55318;52.068;5.188;2023-06-14T06:00:09;101693.0;;;20.02;49.67
68376;BME280;55318;52.068;5.188;2023-06-14T06:01:46;101701.0;;;20.04;50.16
68376;BME280;55318;52.068;5.188;2023-06-14T06:03:22;101701.0;;;20.27;50.36
68376;BME280;55318;52.068;5.188;2023-06-14T06:06:34;101700.0;;;20.27;48.82
68376;BME280;55318;52.068;5.188;2023-06-14T06:08:10;101700.0;;;20.37;49.19
68376;BME280;55318;52.068;5.188;2023-06-14T06:09:46;101698.0;;;20.55;48.57
68376;BME280;55318;52.068;5.188;2023-06-14T06:11:23;101696.0;;;20.66;48.33
68376;BME280;55318;52.068;5.188;2023-06-14T06:14:35;101701.0;;;20.61;47.71
68376;BME280;55318;52.068;5.188;2023-06-14T06:16:11;101703.0;;;20.7;47.95
68376;BME280;55318;52.068;5.188;2023-06-14T06:17:47;101705.0;;;20.7;47.39
68376;BME280;55318;52.068;5.188;2023-06-14T06:20:59;101700.0;;;20.8;47.97
68376;BME280;55318;52.068;5.188;2023-06-14T06:22:35;101695.0;;;20.97;47.74
68376;BME280;55318;52.068;5.188;2023-06-14T06:24:12;101705.0;;;20.96;47.22
68376;BME280;55318;52.068;5.188;2023-06-14T06:27:24;101703.0;;;21.09;46.86
68376;BME280;55318;52.068;5.188;2023-06-14T06:29:00;101708.0;;;21.32;47.12
68376;BME280;55318;52.068;5.188;2023-06-14T06:30:36;101707.0;;;21.51;46.59
68376;BME280;55318;52.068;5.188;2023-06-14T06:32:12;101703.0;;;21.69;45.91
68376;BME280;55318;52.068;5.188;2023-06-14T06:35:26;101708.0;;;21.79;45.52
68376;BME280;55318;52.068;5.188;2023-06-14T06:37:02;101706.0;;;21.78;45.58
68376;BME280;55318;52.068;5.188;2023-06-14T06:38:38;101710.0;;;22.05;45.72
68376;BME280;55318;52.068;5.188;2023-06-14T06:41:50;101711.0;;;22.3;45.87
68376;BME280;55318;52.068;5.188;2023-06-14T06:43:26;101710.0;;;22.43;44.79
68376;BME280;55318;52.068;5.188;2023-06-14T06:45:03;101711.0;;;22.69;44.02
68376;BME280;55318;52.068;5.188;2023-06-14T06:48:16;101711.0;;;23.06;43.49
68376;BME280;55318;52.068;5.188;2023-06-14T06:49:52;101718.0;;;23.03;42.25
68376;BME280;55318;52.068;5.188;2023-06-14T06:51:28;101727.0;;;22.8;42.46
68376;BME280;55318;52.068;5.188;2023-06-14T06:54:40;101728.0;;;23.04;42.83
68376;BME280;55318;52.068;5.188;2023-06-14T06:56:16;101732.0;;;23.23;42.21
68376;BME280;55318;52.068;5.188;2023-06-14T06:57:52;101727.0;;;23.31;43.01
68376;BME280;55318;52.068;5.188;2023-06-14T06:59:29;101734.0;;;23.52;43.42
68376;BME280;55318;52.068;5.188;2023-06-14T07:02:41;101733.0;;;23.56;43.89
68376;BME280;55318;52.068;5.188;2023-06-14T07:04:17;101742.0;;;23.6;42.11
68376;BME280;55318;52.068;5.188;2023-06-14T07:05:53;101739.0;;;23.98;43.45
68376;BME280;55318;52.068;5.188;2023-06-14T07:09:05;101744.0;;;24.05;41.37
68376;BME280;55318;52.068;5.188;2023-06-14T07:10:42;101743.0;;;24.36;40.93
68376;BME280;55318;52.068;5.188;2023-06-14T07:12:18;101743.0;;;24.42;41.0
68376;BME280;55318;52.068;5.188;2023-06-14T07:15:30;101749.0;;;24.51;40.28
68376;BME280;55318;52.068;5.188;2023-06-14T07:17:06;101741.0;;;24.66;39.39
68376;BME280;55318;52.068;5.188;2023-06-14T07:18:42;101743.0;;;24.64;39.68
68376;BME280;55318;52.068;5.188;2023-06-14T07:21:55;101752.0;;;24.82;37.99
68376;BME280;55318;52.068;5.188;2023-06-14T07:23:31;101752.0;;;24.75;37.75
68376;BME280;55318;52.068;5.188;2023-06-14T07:25:08;101753.0;;;24.68;37.87
68376;BME280;55318;52.068;5.188;2023-06-14T07:26:44;101760.0;;;24.59;39.33
68376;BME280;55318;52.068;5.188;2023-06-14T07:29:56;101758.0;;;24.58;38.57
68376;BME280;55318;52.068;5.188;2023-06-14T07:31:32;101751.0;;;24.88;39.35
68376;BME280;55318;52.068;5.188;2023-06-14T07:33:08;101753.0;;;25.04;38.56
68376;BME280;55318;52.068;5.188;2023-06-14T07:36:21;101755.0;;;25.0;37.43
68376;BME280;55318;52.068;5.188;2023-06-14T07:37:58;101760.0;;;25.03;37.68
68376;BME280;55318;52.068;5.188;2023-06-14T07:39:34;101762.0;;;25.38;37.64
68376;BME280;55318;52.068;5.188;2023-06-14T07:42:46;101769.0;;;25.32;36.96
68376;BME280;55318;52.068;5.188;2023-06-14T07:44:22;101763.0;;;25.28;37.31
68376;BME280;55318;52.068;5.188;2023-06-14T07:45:59;101777.0;;;25.1;36.44
68376;BME280;55318;52.068;5.188;2023-06-14T07:47:35;101774.0;;;25.2;36.96
68376;BME280;55318;52.068;5.188;2023-06-14T07:50:47;101773.0;;;24.92;37.35
68376;BME280;55318;52.068;5.188;2023-06-14T07:52:23;101775.0;;;24.9;36.87
68376;BME280;55318;52.068;5.188;2023-06-14T07:53:59;101775.0;;;25.16;37.21
68376;BME280;55318;52.068;5.188;2023-06-14T07:57:11;101775.0;;;25.13;36.94
68376;BME280;55318;52.068;5.188;2023-06-14T07:58:47;101780.0;;;25.57;39.11
68376;BME280;55318;52.068;5.188;2023-06-14T08:00:24;101781.0;;;25.34;35.36
68376;BME280;55318;52.068;5.188;2023-06-14T08:03:36;101790.0;;;25.38;35.69
68376;BME280;55318;52.068;5.188;2023-06-14T08:05:12;101783.0;;;25.37;36.04
68376;BME280;55318;52.068;5.188;2023-06-14T08:06:49;101783.0;;;25.54;36.06
68376;BME280;55318;52.068;5.188;2023-06-14T08:10:02;101783.0;;;25.87;35.31
68376;BME280;55318;52.068;5.188;2023-06-14T08:11:37;101793.0;;;25.98;35.71
68376;BME280;55318;52.068;5.188;2023-06-14T08:13:14;101782.0;;;25.93;35.58
68376;BME280;55318;52.068;5.188;2023-06-14T08:14:50;101783.0;;;25.99;35.35
68376;BME280;55318;52.068;5.188;2023-06-14T08:18:02;101789.0;;;26.08;35.21
68376;BME280;55318;52.068;5.188;2023-06-14T08:19:38;101790.0;;;26.08;34.54
68376;BME280;55318;52.068;5.188;2023-06-14T08:21:14;101805.0;;;25.83;34.81
68376;BME280;55318;52.068;5.188;2023-06-14T08:24:26;101791.0;;;25.68;34.69
68376;BME280;55318;52.068;5.188;2023-06-14T08:26:03;101785.0;;;25.65;34.14
68376;BME280;55318;52.068;5.188;2023-06-14T08:27:40;101786.0;;;25.76;33.96
68376;BME280;55318;52.068;5.188;2023-06-14T08:30:52;101792.0;;;25.73;34.24
68376;BME280;55318;52.068;5.188;2023-06-14T08:32:28;101785.0;;;25.9;34.17
68376;BME280;55318;52.068;5.188;2023-06-14T08:34:04;101792.0;;;25.76;33.28
68376;BME280;55318;52.068;5.188;2023-06-14T08:35:40;101787.0;;;25.78;33.43
68376;BME280;55318;52.068;5.188;2023-06-14T08:38:53;101786.0;;;25.7;33.67
68376;BME280;55318;52.068;5.188;2023-06-14T08:40:30;101784.0;;;25.96;34.01
68376;BME280;55318;52.068;5.188;2023-06-14T08:42:07;101782.0;;;26.15;34.17
68376;BME280;55318;52.068;5.188;2023-06-14T08:45:22;101776.0;;;25.97;33.19
68376;BME280;55318;52.068;5.188;2023-06-14T08:47:00;101776.0;;;26.37;33.82
68376;BME280;55318;52.068;5.188;2023-06-14T08:48:39;101784.0;;;26.58;34.85
68376;BME280;55318;52.068;5.188;2023-06-14T08:51:56;101778.0;;;26.58;33.86
68376;BME280;55318;52.068;5.188;2023-06-14T08:53:36;101776.0;;;26.56;32.24
68376;BME280;55318;52.068;5.188;2023-06-14T08:55:13;101782.0;;;26.78;33.17
68376;BME280;55318;52.068;5.188;2023-06-14T08:56:50;101778.0;;;26.86;31.94
68376;BME280;55318;52.068;5.188;2023-06-14T09:00:05;101780.0;;;27.06;31.9
68376;BME280;55318;52.068;5.188;2023-06-14T09:01:41;101780.0;;;27.38;32.15
68376;BME280;55318;52.068;5.188;2023-06-14T09:03:18;101777.0;;;27.49;31.08
68376;BME280;55318;52.068;5.188;2023-06-14T09:06:30;101781.0;;;27.26;30.95
68376;BME280;55318;52.068;5.188;2023-06-14T09:08:06;101782.0;;;26.94;30.22
68376;BME280;55318;52.068;5.188;2023-06-14T09:09:42;101781.0;;;27.21;30.23
68376;BME280;55318;52.068;5.188;2023-06-14T09:11:19;101776.0;;;27.15;30.35
68376;BME280;55318;52.068;5.188;2023-06-14T09:14:33;101775.0;;;27.17;30.81
68376;BME280;55318;52.068;5.188;2023-06-14T09:16:09;101785.0;;;27.35;29.87
68376;BME280;55318;52.068;5.188;2023-06-14T09:17:45;101784.0;;;27.07;30.48
68376;BME280;55318;52.068;5.188;2023-06-14T09:20:59;101796.0;;;27.37;31.03
68376;BME280;55318;52.068;5.188;2023-06-14T09:22:36;101787.0;;;27.34;30.72
68376;BME280;55318;52.068;5.188;2023-06-14T09:24:14;101797.0;;;27.35;30.24
68376;BME280;55318;52.068;5.188;2023-06-14T09:27:26;101792.0;;;27.24;29.72
68376;BME280;55318;52.068;5.188;2023-06-14T09:29:04;101800.0;;;27.45;31.13
68376;BME280;55318;52.068;5.188;2023-06-14T09:30:41;101783.0;;;27.38;30.71
68376;BME280;55318;52.068;5.188;2023-06-14T09:32:17;101798.0;;;27.43;30.11
68376;BME280;55318;52.068;5.188;2023-06-14T09:35:31;101792.0;;;27.25;30.32
68376;BME280;55318;52.068;5.188;2023-06-14T09:37:07;101796.0;;;27.29;30.0
68376;BME280;55318;52.068;5.188;2023-06-14T09:38:51;101787.0;;;27.15;30.29
68376;BME280;55318;52.068;5.188;2023-06-14T09:42:16;101791.0;;;27.36;29.79
68376;BME280;55318;52.068;5.188;2023-06-14T09:43:53;101788.0;;;27.48;29.37
68376;BME280;55318;52.068;5.188;2023-06-14T09:45:29;101784.0;;;27.49;29.56
68376;BME280;55318;52.068;5.188;2023-06-14T09:47:06;101789.0;;;27.51;29.71
68376;BME280;55318;52.068;5.188;2023-06-14T09:50:18;101788.0;;;27.04;30.08
68376;BME280;55318;52.068;5.188;2023-06-14T09:51:55;101788.0;;;27.33;30.14
68376;BME280;55318;52.068;5.188;2023-06-14T09:53:35;101792.0;;;27.75;30.31
68376;BME280;55318;52.068;5.188;2023-06-14T09:55:13;101787.0;;;27.56;30.0
68376;BME280;55318;52.068;5.188;2023-06-14T09:58:29;101785.0;;;27.58;29.52
68376;BME280;55318;52.068;5.188;2023-06-14T10:00:07;101794.0;;;27.4;29.72
68376;BME280;55318;52.068;5.188;2023-06-14T10:01:44;101795.0;;;27.7;29.98
68376;BME280;55318;52.068;5.188;2023-06-14T10:05:04;101790.0;;;27.54;28.48
68376;BME280;55318;52.068;5.188;2023-06-14T10:06:43;101788.0;;;27.67;30.0
68376;BME280;55318;52.068;5.188;2023-06-14T10:08:25;101798.0;;;27.43;28.92
68376;BME280;55318;52.068;5.188;2023-06-14T10:10:03;101791.0;;;27.47;28.6
68376;BME280;55318;52.068;5.188;2023-06-14T10:13:16;101796.0;;;27.97;31.26
68376;BME280;55318;52.068;5.188;2023-06-14T10:14:53;101791.0;;;27.76;28.19
68376;BME280;55318;52.068;5.188;2023-06-14T10:16:34;101783.0;;;27.51;29.72
68376;BME280;55318;52.068;5.188;2023-06-14T10:18:17;101782.0;;;27.91;29.47
68376;BME280;55318;52.068;5.188;2023-06-14T10:21:57;101793.0;;;28.01;28.33
68376;BME280;55318;52.068;5.188;2023-06-14T10:23:40;101785.0;;;27.86;28.08
68376;BME280;55318;52.068;5.188;2023-06-14T10:25:33;101787.0;;;27.67;28.74
68376;BME280;55318;52.068;5.188;2023-06-14T10:27:13;101785.0;;;27.79;28.97
68376;BME280;55318;52.068;5.188;2023-06-14T10:28:59;101788.0;;;27.97;27.88
68376;BME280;55318;52.068;5.188;2023-06-14T10:32:11;101795.0;;;27.81;27.48
68376;BME280;55318;52.068;5.188;2023-06-14T10:33:49;101791.0;;;27.76;28.38
68376;BME280;55318;52.068;5.188;2023-06-14T10:35:26;101788.0;;;27.65;27.94
68376;BME280;55318;52.068;5.188;2023-06-14T10:37:03;101788.0;;;27.85;28.69
68376;BME280;55318;52.068;5.188;2023-06-14T10:40:30;101785.0;;;28.03;28.82
68376;BME280;55318;52.068;5.188;2023-06-14T10:42:07;101793.0;;;27.87;28.76
68376;BME280;55318;52.068;5.188;2023-06-14T10:43:43;101792.0;;;27.78;28.61
68376;BME280;55318;52.068;5.188;2023-06-14T10:46:58;101780.0;;;27.94;28.61
68376;BME280;55318;52.068;5.188;2023-06-14T10:48:40;101774.0;;;28.16;29.22
68376;BME280;55318;52.068;5.188;2023-06-14T10:50:16;101777.0;;;28.43;29.46
68376;BME280;55318;52.068;5.188;2023-06-14T10:51:52;101780.0;;;28.43;28.26
68376;BME280;55318;52.068;5.188;2023-06-14T10:55:17;101782.0;;;28.54;28.83
68376;BME280;55318;52.068;5.188;2023-06-14T10:56:53;101787.0;;;28.97;28.04
68376;BME280;55318;52.068;5.188;2023-06-14T10:58:29;101785.0;;;29.03;27.74
68376;BME280;55318;52.068;5.188;2023-06-14T11:00:07;101796.0;;;29.27;27.54
68376;BME280;55318;52.068;5.188;2023-06-14T11:03:50;101793.0;;;28.67;26.98
68376;BME280;55318;52.068;5.188;2023-06-14T11:05:27;101780.0;;;28.89;27.8
68376;BME280;55318;52.068;5.188;2023-06-14T11:07:14;101789.0;;;28.76;26.52